createdAt,value
2019-05-11T00:00:27.447Z,12.30
2019-05-11T00:02:56.301Z,11.00
2019-05-11T00:05:25.250Z,11.03
2019-05-11T00:07:54.049Z,11.50
2019-05-11T00:10:23.653Z,11.30
2019-05-11T00:12:53.021Z,11.53
2019-05-11T00:15:21.843Z,11.47
2019-05-11T00:17:50.757Z,12.00
2019-05-11T00:20:19.776Z,11.13
2019-05-11T00:22:48.613Z,10.43
2019-05-11T00:25:17.581Z,11.13
2019-05-11T00:27:46.402Z,11.17
2019-05-11T00:30:15.698Z,10.50
2019-05-11T00:32:44.599Z,10.30
2019-05-11T00:35:13.602Z,11.13
2019-05-11T00:37:42.381Z,10.80
2019-05-11T00:40:14.732Z,10.27
2019-05-11T00:42:42.367Z,10.20
2019-05-11T00:45:11.337Z,10.57
2019-05-11T00:47:40.785Z,10.73
2019-05-11T00:50:10.024Z,11.03
2019-05-11T00:52:38.907Z,11.07
2019-05-11T00:55:07.876Z,11.90
2019-05-11T00:57:36.986Z,11.13
2019-05-11T01:00:06.413Z,10.60
2019-05-11T01:02:35.355Z,12.40
2019-05-11T01:05:04.529Z,12.67
2019-05-11T01:07:33.492Z,12.93
2019-05-11T01:10:02.378Z,11.57
2019-05-11T01:12:31.204Z,11.90
2019-05-11T01:14:59.993Z,11.57
2019-05-11T01:17:29.039Z,11.17
2019-05-11T01:19:57.944Z,12.53
2019-05-11T01:22:26.773Z,12.17
2019-05-11T01:24:55.614Z,11.47
2019-05-11T01:27:26.830Z,12.13
2019-05-11T01:29:55.711Z,12.03
2019-05-11T01:32:24.656Z,12.10
2019-05-11T01:34:53.581Z,11.87
2019-05-11T01:37:22.542Z,12.63
2019-05-11T01:39:51.526Z,13.70
2019-05-11T01:42:20.333Z,14.20
2019-05-11T01:44:49.182Z,13.17
2019-05-11T01:47:18.041Z,13.20
2019-05-11T01:49:46.941Z,13.63
2019-05-11T01:52:15.840Z,14.13
2019-05-11T01:54:44.746Z,14.00
2019-05-11T01:57:13.704Z,12.37
2019-05-11T01:59:42.589Z,12.60
2019-05-11T02:02:11.527Z,12.77
2019-05-11T02:04:40.500Z,11.87
2019-05-11T02:07:09.470Z,11.40
2019-05-11T02:09:38.345Z,12.13
2019-05-11T02:12:07.443Z,11.77
2019-05-11T02:14:36.408Z,11.47
2019-05-11T02:17:05.242Z,11.17
2019-05-11T02:19:34.225Z,11.70
2019-05-11T02:22:03.149Z,12.03
2019-05-11T02:24:32.130Z,11.50
2019-05-11T02:27:01.059Z,13.00
2019-05-11T02:29:30.086Z,12.60
2019-05-11T02:31:59.020Z,12.30
2019-05-11T02:34:28.018Z,12.40
2019-05-11T02:36:56.862Z,13.47
2019-05-11T02:39:25.851Z,12.80
2019-05-11T02:41:54.791Z,12.50
2019-05-11T02:44:23.726Z,11.70
2019-05-11T02:46:52.703Z,11.83
2019-05-11T02:49:21.691Z,12.53
2019-05-11T02:51:50.859Z,12.43
2019-05-11T02:54:19.920Z,11.17
2019-05-11T02:56:48.875Z,11.47
2019-05-11T02:59:17.762Z,11.43
2019-05-11T03:01:46.709Z,10.63
2019-05-11T03:04:15.574Z,11.33
2019-05-11T03:06:44.392Z,10.50
2019-05-11T03:09:13.220Z,11.60
2019-05-11T03:11:54.871Z,11.20
2019-05-11T03:14:12.452Z,10.53
2019-05-11T03:16:41.313Z,11.20
2019-05-11T03:19:10.212Z,10.20
2019-05-11T03:21:39.026Z,10.20
2019-05-11T03:24:07.898Z,10.63
2019-05-11T03:26:36.731Z,10.07
2019-05-11T03:29:05.730Z,9.70
2019-05-11T03:31:34.563Z,10.13
2019-05-11T03:34:03.415Z,9.33
2019-05-11T03:36:32.328Z,9.53
2019-05-11T03:39:01.174Z,9.53
2019-05-11T03:41:30.101Z,9.17
2019-05-11T03:43:58.931Z,8.20
2019-05-11T03:46:27.727Z,8.00
2019-05-11T03:48:56.634Z,8.67
2019-05-11T03:51:25.454Z,7.97
2019-05-11T03:53:54.196Z,8.57
2019-05-11T03:56:23.056Z,7.57
2019-05-11T03:58:51.936Z,8.20
2019-05-11T04:01:20.796Z,7.03
2019-05-11T04:03:49.575Z,6.97
2019-05-11T04:06:18.326Z,7.30
2019-05-11T04:08:47.230Z,7.73
2019-05-11T04:11:16.131Z,6.63
2019-05-11T04:13:45.009Z,7.10
2019-05-11T04:16:18.603Z,7.43
2019-05-11T04:18:47.432Z,7.03
2019-05-11T04:21:16.194Z,6.57
2019-05-11T04:23:44.968Z,6.17
2019-05-11T04:26:13.860Z,6.30
2019-05-11T04:28:42.672Z,6.80
2019-05-11T04:31:11.435Z,6.00
2019-05-11T04:33:40.264Z,6.00
2019-05-11T04:36:09.098Z,5.93
2019-05-11T04:38:37.952Z,6.10
2019-05-11T04:41:06.715Z,5.60
2019-05-11T04:43:37.950Z,6.40
2019-05-11T04:46:06.676Z,6.37
2019-05-11T04:48:35.481Z,5.80
2019-05-11T04:51:04.326Z,5.97
2019-05-11T04:53:33.097Z,6.03
2019-05-11T04:56:01.866Z,6.40
2019-05-11T04:58:30.602Z,6.40
2019-05-11T05:00:59.466Z,5.93
2019-05-11T05:03:40.348Z,5.90
2019-05-11T05:06:21.198Z,6.00
2019-05-11T05:08:29.404Z,6.17
2019-05-11T05:11:00.575Z,5.77
2019-05-11T05:13:29.622Z,6.53
2019-05-11T05:15:59.195Z,5.83
2019-05-11T05:18:37.255Z,6.20
2019-05-11T05:21:06.139Z,5.40
2019-05-11T05:23:35.267Z,5.83
2019-05-11T05:26:04.248Z,5.70
2019-05-11T05:28:33.085Z,5.87
2019-05-11T05:31:01.949Z,5.67
2019-05-11T05:33:30.828Z,5.57
2019-05-11T05:35:59.642Z,5.90
2019-05-11T05:38:28.456Z,5.53
2019-05-11T05:40:57.329Z,5.13
2019-05-11T05:43:28.556Z,5.50
2019-05-11T05:45:56.558Z,5.47
2019-05-11T05:48:25.311Z,6.17
2019-05-11T05:50:54.139Z,5.70
2019-05-11T05:53:22.946Z,5.00
2019-05-11T05:55:51.786Z,5.93
2019-05-11T05:58:20.506Z,5.43
2019-05-11T06:00:49.258Z,5.33
2019-05-11T06:03:18.032Z,5.20
2019-05-11T06:05:46.854Z,6.07
2019-05-11T06:08:16.559Z,5.77
2019-05-11T06:10:45.483Z,5.60
2019-05-11T06:13:14.235Z,5.50
2019-05-11T06:15:43.017Z,5.33
2019-05-11T06:18:11.944Z,5.13
2019-05-11T06:20:40.751Z,15.10
2019-05-11T06:23:09.579Z,6.37
2019-05-11T06:25:38.368Z,5.07
2019-05-11T06:28:07.243Z,5.37
2019-05-11T06:30:36.020Z,5.43
2019-05-11T06:33:04.788Z,5.70
2019-05-11T06:35:33.699Z,4.80
2019-05-11T06:38:02.529Z,5.30
2019-05-11T06:40:31.808Z,5.70
2019-05-11T06:43:00.659Z,5.47
2019-05-11T06:45:29.971Z,5.60
2019-05-11T06:48:02.434Z,5.60
2019-05-11T06:50:31.249Z,5.70
2019-05-11T06:53:00.078Z,5.10
2019-05-11T06:55:28.839Z,5.63
2019-05-11T06:58:03.790Z,5.70
2019-05-11T07:00:32.609Z,5.47
2019-05-11T07:03:01.444Z,5.80
2019-05-11T07:05:30.269Z,5.97
2019-05-11T07:07:59.151Z,5.90
2019-05-11T07:10:27.947Z,5.50
2019-05-11T07:12:57.791Z,5.57
2019-05-11T07:15:26.637Z,5.60
2019-05-11T07:17:57.133Z,5.97
2019-05-11T07:20:26.010Z,5.83
2019-05-11T07:22:55.005Z,6.47
2019-05-11T07:25:23.874Z,6.07
2019-05-11T07:27:52.752Z,6.47
2019-05-11T07:30:21.677Z,6.57
2019-05-11T07:32:53.222Z,6.10
2019-05-11T07:35:24.566Z,6.20
2019-05-11T07:37:53.448Z,6.20
2019-05-11T07:40:22.275Z,6.13
2019-05-11T07:42:51.136Z,6.53
2019-05-11T07:45:20.283Z,6.10
2019-05-11T07:47:49.109Z,6.80
2019-05-11T07:50:18.384Z,6.40
2019-05-11T07:52:48.321Z,6.40
2019-05-11T07:55:19.264Z,6.97
2019-05-11T07:57:48.325Z,6.73
2019-05-11T08:00:18.621Z,6.40
2019-05-11T08:02:48.109Z,6.80
2019-05-11T08:05:29.799Z,7.30
2019-05-11T08:07:59.554Z,6.77
2019-05-11T08:10:28.558Z,7.10
2019-05-11T08:12:58.779Z,7.37
2019-05-11T08:15:28.489Z,7.63
2019-05-11T08:17:57.969Z,7.47
2019-05-11T08:20:28.114Z,7.87
2019-05-11T08:22:58.662Z,8.60
2019-05-11T08:25:28.695Z,8.63
2019-05-11T08:27:58.872Z,9.17
2019-05-11T08:30:28.525Z,8.70
2019-05-11T08:32:58.266Z,9.57
2019-05-11T08:35:31.039Z,9.43
2019-05-11T08:37:58.456Z,10.33
2019-05-11T08:40:28.885Z,9.90
2019-05-11T08:42:58.390Z,9.70
2019-05-11T08:45:27.945Z,10.53
2019-05-11T08:47:57.906Z,10.57
2019-05-11T08:50:27.946Z,10.27
2019-05-11T08:52:58.071Z,10.20
2019-05-11T08:55:29.105Z,9.63
2019-05-11T08:57:58.669Z,10.00
2019-05-11T09:00:28.377Z,9.97
2019-05-11T09:02:58.282Z,10.13
2019-05-11T09:05:28.017Z,9.70
2019-05-11T09:07:57.749Z,9.73
2019-05-11T09:10:28.093Z,9.17
2019-05-11T09:12:59.126Z,9.50
2019-05-11T09:15:36.452Z,9.53
2019-05-11T09:17:58.520Z,9.37
2019-05-11T09:20:28.504Z,9.63
2019-05-11T09:22:58.910Z,8.93
2019-05-11T09:25:27.938Z,9.27
2019-05-11T09:27:58.679Z,8.60
2019-05-11T09:30:28.773Z,9.10
2019-05-11T09:32:58.235Z,9.07
2019-05-11T09:35:29.272Z,8.87
2019-05-11T09:37:58.751Z,8.23
2019-05-11T09:40:28.348Z,7.93
2019-05-11T09:42:58.480Z,7.20
2019-05-11T09:45:27.844Z,6.50
2019-05-11T09:47:58.208Z,6.47
2019-05-11T09:50:28.400Z,6.00
2019-05-11T09:52:58.179Z,5.20
2019-05-11T09:55:28.259Z,5.33
2019-05-11T09:57:57.985Z,4.70
2019-05-11T10:00:28.223Z,5.33
2019-05-11T10:02:57.747Z,5.07
2019-05-11T10:05:28.593Z,5.60
2019-05-11T10:07:58.908Z,4.70
2019-05-11T10:10:28.983Z,5.43
2019-05-11T10:12:59.029Z,5.00
2019-05-11T10:15:28.151Z,4.73
2019-05-11T10:17:58.894Z,4.93
2019-05-11T10:20:28.638Z,4.67
2019-05-11T10:22:58.068Z,5.40
2019-05-11T10:25:28.658Z,4.50
2019-05-11T10:27:58.073Z,4.70
2019-05-11T10:30:28.042Z,4.10
2019-05-11T10:32:57.878Z,4.60
2019-05-11T10:35:28.876Z,4.30
2019-05-11T10:37:58.347Z,5.23
2019-05-11T10:40:28.108Z,5.53
2019-05-11T10:42:58.919Z,6.40
2019-05-11T10:45:28.621Z,5.80
2019-05-11T10:48:00.775Z,6.73
2019-05-11T10:50:28.772Z,8.50
2019-05-11T10:52:59.035Z,10.57
2019-05-11T10:55:28.166Z,9.93
2019-05-11T10:57:58.116Z,7.43
2019-05-11T11:00:28.268Z,6.73
2019-05-11T11:03:00.088Z,5.37
2019-05-11T11:05:29.303Z,5.07
2019-05-11T11:07:58.951Z,5.50
2019-05-11T11:10:28.807Z,5.07
2019-05-11T11:12:57.961Z,5.23
2019-05-11T11:15:29.985Z,5.67
2019-05-11T11:17:58.923Z,5.90
2019-05-11T11:20:28.109Z,6.20
2019-05-11T11:22:58.339Z,4.90
2019-05-11T11:25:28.335Z,5.73
2019-05-11T11:27:58.048Z,5.43
2019-05-11T11:30:28.614Z,5.87
2019-05-11T11:32:58.760Z,5.40
2019-05-11T11:35:28.068Z,5.80
2019-05-11T11:37:58.430Z,5.87
2019-05-11T11:40:28.224Z,5.83
2019-05-11T11:42:58.072Z,5.77
2019-05-11T11:45:28.858Z,5.80
2019-05-11T11:47:58.148Z,5.80
2019-05-11T11:50:28.319Z,6.47
2019-05-11T11:52:59.509Z,5.63
2019-05-11T11:55:29.113Z,5.37
2019-05-11T11:57:58.845Z,5.40
2019-05-11T12:00:28.823Z,5.93
2019-05-11T12:02:58.147Z,5.80
2019-05-11T12:05:28.258Z,6.07
2019-05-11T12:07:58.037Z,6.33
2019-05-11T12:10:28.680Z,5.87
2019-05-11T12:12:58.227Z,5.83
2019-05-11T12:15:28.332Z,7.23
2019-05-11T12:17:58.760Z,6.93
2019-05-11T12:20:28.650Z,6.87
2019-05-11T12:22:58.130Z,6.97
2019-05-11T12:25:27.788Z,7.47
2019-05-11T12:27:57.746Z,8.03
2019-05-11T12:30:28.547Z,9.23
2019-05-11T12:32:57.702Z,8.80
2019-05-11T12:35:28.475Z,8.63
2019-05-11T12:37:58.716Z,8.17
2019-05-11T12:40:28.392Z,8.00
2019-05-11T12:42:59.047Z,8.77
2019-05-11T12:45:29.632Z,8.00
2019-05-11T12:47:58.749Z,8.00
2019-05-11T12:50:28.560Z,7.40
2019-05-11T12:52:58.818Z,7.80
2019-05-11T12:55:28.669Z,7.90
2019-05-11T12:57:58.036Z,8.13
2019-05-11T13:00:30.956Z,8.50
2019-05-11T13:02:58.694Z,8.13
2019-05-11T13:05:28.529Z,7.93
2019-05-11T13:07:58.731Z,8.10
2019-05-11T13:10:28.269Z,8.20
2019-05-11T13:12:58.187Z,7.90
2019-05-11T13:15:28.190Z,7.53
2019-05-11T13:17:58.130Z,7.27
2019-05-11T13:20:28.509Z,7.67
2019-05-11T13:22:58.728Z,7.57
2019-05-11T13:25:28.254Z,7.40
2019-05-11T13:27:58.075Z,7.93
2019-05-11T13:30:27.832Z,7.33
2019-05-11T13:32:58.047Z,6.97
2019-05-11T13:35:28.567Z,7.20
2019-05-11T13:37:58.437Z,6.63
2019-05-11T13:40:27.823Z,7.20
2019-05-11T13:42:58.192Z,7.30
2019-05-11T13:45:28.286Z,7.53
2019-05-11T13:47:59.187Z,7.30
2019-05-11T13:50:29.638Z,7.60
2019-05-11T13:52:58.514Z,7.80
2019-05-11T13:55:28.459Z,7.40
2019-05-11T13:57:57.818Z,8.00
2019-05-11T14:00:28.962Z,7.67
2019-05-11T14:03:00.182Z,8.07
2019-05-11T14:05:29.027Z,7.50
2019-05-11T14:07:58.700Z,8.03
2019-05-11T14:10:28.257Z,7.20
2019-05-11T14:12:58.099Z,7.03
2019-05-11T14:15:28.108Z,8.77
2019-05-11T14:18:05.686Z,7.13
2019-05-11T14:20:28.994Z,7.37
2019-05-11T14:22:58.462Z,7.10
2019-05-11T14:25:28.050Z,7.40
2019-05-11T14:27:59.404Z,7.00
2019-05-11T14:30:28.219Z,7.13
2019-05-11T14:32:58.571Z,6.83
2019-05-11T14:35:27.979Z,6.40
2019-05-11T14:37:58.842Z,6.57
2019-05-11T14:40:28.232Z,6.70
2019-05-11T14:42:58.118Z,6.70
2019-05-11T14:45:28.900Z,6.37
2019-05-11T14:47:58.239Z,6.10
2019-05-11T14:50:28.172Z,6.40
2019-05-11T14:52:58.107Z,6.60
2019-05-11T14:55:28.938Z,6.17
2019-05-11T14:57:57.754Z,5.63
2019-05-11T15:00:28.768Z,5.93
2019-05-11T15:02:58.390Z,5.57
2019-05-11T15:05:28.339Z,5.27
2019-05-11T15:07:58.153Z,5.30
2019-05-11T15:10:27.889Z,5.57
2019-05-11T15:12:58.936Z,6.30
2019-05-11T15:15:28.049Z,5.90
2019-05-11T15:17:58.143Z,5.70
2019-05-11T15:20:28.540Z,5.73
2019-05-11T15:22:58.205Z,5.57
2019-05-11T15:25:28.884Z,5.50
2019-05-11T15:27:58.433Z,5.47
2019-05-11T15:30:28.733Z,5.20
2019-05-11T15:32:58.417Z,5.30
2019-05-11T15:35:28.459Z,5.20
2019-05-11T15:37:58.177Z,4.97
2019-05-11T15:40:27.844Z,5.03
2019-05-11T15:42:58.608Z,4.80
2019-05-11T15:45:27.820Z,4.37
2019-05-11T15:47:58.904Z,4.67
2019-05-11T15:50:29.031Z,5.17
2019-05-11T15:52:58.349Z,4.53
2019-05-11T15:55:27.843Z,4.63
2019-05-11T15:57:57.014Z,4.33
2019-05-11T16:00:27.510Z,4.30
2019-05-11T16:03:01.734Z,4.93
2019-05-11T16:05:30.530Z,4.60
2019-05-11T16:08:01.744Z,4.63
2019-05-11T16:10:30.112Z,4.50
2019-05-11T16:12:58.906Z,4.93
2019-05-11T16:15:27.900Z,4.40
2019-05-11T16:17:57.784Z,5.27
2019-05-11T16:20:28.487Z,4.77
2019-05-11T16:22:57.290Z,4.63
2019-05-11T16:25:28.022Z,5.60
2019-05-11T16:27:56.724Z,5.03
2019-05-11T16:30:25.522Z,4.90
2019-05-11T16:32:54.402Z,5.10
2019-05-11T16:35:23.143Z,5.10
2019-05-11T16:37:51.895Z,4.53
2019-05-11T16:40:21.259Z,4.80
2019-05-11T16:42:50.297Z,5.83
2019-05-11T16:45:19.546Z,5.37
2019-05-11T16:47:48.666Z,5.70
2019-05-11T16:50:18.334Z,5.00
2019-05-11T16:52:48.165Z,5.27
2019-05-11T16:55:18.364Z,5.57
2019-05-11T16:57:48.538Z,4.80
2019-05-11T17:00:18.523Z,4.67
2019-05-11T17:02:49.090Z,5.17
2019-05-11T17:05:26.027Z,5.03
2019-05-11T17:07:48.631Z,5.10
2019-05-11T17:10:18.139Z,5.57
2019-05-11T17:12:48.361Z,4.20
2019-05-11T17:15:18.650Z,4.77
2019-05-11T17:17:48.674Z,4.80
2019-05-11T17:20:22.169Z,4.37
2019-05-11T17:22:53.738Z,4.60
2019-05-11T17:25:23.312Z,4.80
2019-05-11T17:27:52.148Z,4.87
2019-05-11T17:30:22.046Z,4.67
2019-05-11T17:32:50.987Z,4.73
2019-05-11T17:35:19.916Z,4.30
2019-05-11T17:37:48.957Z,4.50
2019-05-11T17:40:23.327Z,4.70
2019-05-11T17:42:54.852Z,4.60
2019-05-11T17:45:25.108Z,4.40
2019-05-11T17:47:54.413Z,4.93
2019-05-11T17:50:23.296Z,4.37
2019-05-11T17:52:52.264Z,4.50
2019-05-11T17:55:21.060Z,4.40
2019-05-11T17:57:53.734Z,4.67
2019-05-11T18:00:20.689Z,4.80
2019-05-11T18:02:50.186Z,4.90
2019-05-11T18:05:19.072Z,5.07
2019-05-11T18:07:47.893Z,4.33
2019-05-11T18:10:18.272Z,5.10
2019-05-11T18:12:48.575Z,5.00
2019-05-11T18:15:18.782Z,5.43
2019-05-11T18:17:48.602Z,5.17
2019-05-11T18:20:21.516Z,4.87
2019-05-11T18:22:49.230Z,4.30
2019-05-11T18:25:18.645Z,4.60
2019-05-11T18:27:48.188Z,5.90
2019-05-11T18:30:17.412Z,6.33
2019-05-11T18:32:48.589Z,5.50
2019-05-11T18:35:19.111Z,5.03
2019-05-11T18:37:47.823Z,4.60
2019-05-11T18:40:18.720Z,5.30
2019-05-11T18:42:48.798Z,5.50
2019-05-11T18:45:18.829Z,4.80
2019-05-11T18:47:48.835Z,4.90
2019-05-11T18:50:29.770Z,4.93
2019-05-11T18:52:49.054Z,5.23
2019-05-11T18:55:18.875Z,4.63
2019-05-11T18:57:49.135Z,4.50
2019-05-11T19:00:19.670Z,4.60
2019-05-11T19:02:49.336Z,4.60
2019-05-11T19:05:18.867Z,4.67
2019-05-11T19:07:48.290Z,5.00
2019-05-11T19:10:17.489Z,4.83
2019-05-11T19:12:48.664Z,4.87
2019-05-11T19:15:18.709Z,4.60
2019-05-11T19:17:48.972Z,5.27
2019-05-11T19:20:18.110Z,5.20
2019-05-11T19:22:46.963Z,5.00
2019-05-11T19:25:17.977Z,5.10
2019-05-11T19:27:50.140Z,4.93
2019-05-11T19:30:18.481Z,5.20
2019-05-11T19:32:48.670Z,5.40
2019-05-11T19:35:20.892Z,5.60
2019-05-11T19:37:48.686Z,5.63
2019-05-11T19:40:17.746Z,5.77
2019-05-11T19:42:54.312Z,5.47
2019-05-11T19:45:24.042Z,5.13
2019-05-11T19:47:53.029Z,5.00
2019-05-11T19:50:22.002Z,4.93
2019-05-11T19:52:50.908Z,4.70
2019-05-11T19:55:19.625Z,5.10
2019-05-11T19:57:48.535Z,4.20
2019-05-11T20:00:18.529Z,4.90
2019-05-11T20:02:47.513Z,4.53
2019-05-11T20:05:18.409Z,4.20
2019-05-11T20:07:48.670Z,4.20
2019-05-11T20:10:18.945Z,4.23
2019-05-11T20:12:48.533Z,3.70
2019-05-11T20:15:18.750Z,3.80
2019-05-11T20:17:48.848Z,3.53
2019-05-11T20:20:18.578Z,3.67
2019-05-11T20:22:48.411Z,3.60
2019-05-11T20:25:18.498Z,3.57
2019-05-11T20:27:48.830Z,3.37
2019-05-11T20:30:18.485Z,3.17
2019-05-11T20:32:48.708Z,3.73
2019-05-11T20:35:18.080Z,3.80
2019-05-11T20:37:46.945Z,3.17
2019-05-11T20:40:18.062Z,3.43
2019-05-11T20:42:48.556Z,3.93
2019-05-11T20:45:18.530Z,3.50
2019-05-11T20:47:48.751Z,3.63
2019-05-11T20:50:18.542Z,3.70
2019-05-11T20:52:48.275Z,3.67
2019-05-11T20:55:18.183Z,3.80
2019-05-11T20:57:48.423Z,3.37
2019-05-11T21:00:18.673Z,3.63
2019-05-11T21:02:48.746Z,3.80
2019-05-11T21:05:18.315Z,3.40
2019-05-11T21:07:47.314Z,3.00
2019-05-11T21:10:16.540Z,3.83
2019-05-11T21:12:45.407Z,3.20
2019-05-11T21:15:15.318Z,2.83
2019-05-11T21:17:44.352Z,2.57
2019-05-11T21:20:13.263Z,3.00
2019-05-11T21:22:42.097Z,2.63
2019-05-11T21:25:11.519Z,2.40
2019-05-11T21:27:40.478Z,2.50
2019-05-11T21:30:10.882Z,2.40
2019-05-11T21:32:39.796Z,2.77
2019-05-11T21:35:10.067Z,2.80
2019-05-11T21:37:39.244Z,2.53
2019-05-11T21:40:09.025Z,2.47
2019-05-11T21:42:39.471Z,2.73
2019-05-11T21:45:09.434Z,3.10
2019-05-11T21:47:40.973Z,2.70
2019-05-11T21:50:10.246Z,2.27
2019-05-11T21:52:39.295Z,2.33
2019-05-11T21:55:09.374Z,2.40
2019-05-11T21:57:38.925Z,2.07
2019-05-11T22:00:11.275Z,2.03
2019-05-11T22:02:40.250Z,2.10
2019-05-11T22:05:10.322Z,2.30
2019-05-11T22:07:42.034Z,2.13
2019-05-11T22:10:10.110Z,2.03
2019-05-11T22:12:39.408Z,2.07
2019-05-11T22:15:09.827Z,2.23
2019-05-11T22:17:39.614Z,2.20
2019-05-11T22:20:09.917Z,1.93
2019-05-11T22:22:39.314Z,2.10
2019-05-11T22:25:08.512Z,2.13
2019-05-11T22:27:38.795Z,2.10
2019-05-11T22:30:10.128Z,2.10
2019-05-11T22:32:38.997Z,2.17
2019-05-11T22:35:07.961Z,2.13
2019-05-11T22:37:38.700Z,2.47
2019-05-11T22:40:08.254Z,2.40
2019-05-11T22:42:37.663Z,2.07
2019-05-11T22:45:08.600Z,2.33
2019-05-11T22:47:39.161Z,2.27
2019-05-11T22:50:08.332Z,2.20
2019-05-11T22:52:39.757Z,2.13
2019-05-11T22:55:11.143Z,2.67
2019-05-11T22:57:38.682Z,2.23
2019-05-11T23:00:08.963Z,2.13
2019-05-11T23:02:40.450Z,2.33
2019-05-11T23:05:09.419Z,2.10
2019-05-11T23:07:41.448Z,2.00
2019-05-11T23:10:09.244Z,2.20
2019-05-11T23:12:38.554Z,1.97
2019-05-11T23:15:14.623Z,1.90
2019-05-11T23:17:43.506Z,2.10
2019-05-11T23:20:14.930Z,2.10
2019-05-11T23:22:57.544Z,1.77
2019-05-11T23:25:20.564Z,2.23
2019-05-11T23:27:49.441Z,2.30
2019-05-11T23:30:19.876Z,2.00
2019-05-11T23:32:48.968Z,2.43
2019-05-11T23:35:19.102Z,1.80
2019-05-11T23:37:49.559Z,2.00
2019-05-11T23:40:22.004Z,2.40
2019-05-11T23:42:50.894Z,1.90
2019-05-11T23:45:19.901Z,2.03
2019-05-11T23:47:49.184Z,2.47
2019-05-11T23:50:19.256Z,2.30
2019-05-11T23:53:05.016Z,2.37
2019-05-11T23:55:19.665Z,2.63
2019-05-11T23:57:49.096Z,2.27
